createdAt,value
2022-12-08T00:01:20.513Z,2.60
2022-12-08T00:03:48.314Z,2.60
2022-12-08T00:06:53.418Z,2.60
2022-12-08T00:09:25.713Z,2.60
2022-12-08T00:12:02.167Z,2.60
2022-12-08T00:14:37.853Z,2.60
2022-12-08T00:17:06.866Z,2.60
2022-12-08T00:19:36.187Z,2.60
2022-12-08T00:22:07.641Z,2.60
2022-12-08T00:24:39.391Z,2.60
2022-12-08T00:27:10.913Z,2.60
2022-12-08T00:29:40.837Z,2.60
2022-12-08T00:32:07.768Z,2.60
2022-12-08T00:34:34.750Z,2.60
2022-12-08T00:37:03.758Z,2.60
2022-12-08T00:39:30.793Z,2.60
2022-12-08T00:42:12.084Z,2.60
2022-12-08T00:44:42.446Z,2.60
2022-12-08T00:47:09.789Z,2.60
2022-12-08T00:49:39.057Z,2.60
2022-12-08T00:52:06.051Z,2.60
2022-12-08T00:54:35.633Z,2.60
2022-12-08T00:57:04.830Z,2.60
2022-12-08T00:59:33.872Z,2.60
2022-12-08T01:02:00.743Z,2.60
2022-12-08T01:04:29.743Z,2.60
2022-12-08T01:11:21.943Z,2.60
2022-12-08T01:13:48.984Z,2.60
2022-12-08T01:16:24.616Z,2.60
2022-12-08T01:18:54.109Z,2.60
2022-12-08T01:21:21.043Z,2.60
2022-12-08T01:23:50.258Z,2.60
2022-12-08T01:26:18.496Z,2.60
2022-12-08T01:28:46.949Z,2.60
2022-12-08T01:31:19.318Z,2.60
2022-12-08T01:33:47.174Z,2.60
2022-12-08T01:36:26.293Z,2.70
2022-12-08T01:38:54.257Z,2.60
2022-12-08T01:41:24.146Z,2.60
2022-12-08T01:44:25.101Z,2.70
2022-12-08T01:46:53.571Z,2.70
2022-12-08T01:49:34.406Z,2.70
2022-12-08T01:52:27.366Z,2.70
2022-12-08T01:55:02.249Z,2.70
2022-12-08T01:57:41.788Z,2.70
2022-12-08T02:00:12.035Z,2.70
2022-12-08T02:02:59.803Z,2.70
2022-12-08T02:05:38.815Z,2.70
2022-12-08T02:08:11.571Z,2.70
2022-12-08T02:10:42.558Z,2.70
2022-12-08T02:13:13.259Z,2.70
2022-12-08T02:15:51.925Z,2.70
2022-12-08T02:19:29.211Z,2.70
2022-12-08T02:21:53.352Z,2.70
2022-12-08T02:24:29.080Z,2.70
2022-12-08T02:27:04.239Z,2.70
2022-12-08T02:29:52.244Z,2.70
2022-12-08T02:32:37.767Z,2.70
2022-12-08T02:35:30.795Z,2.70
2022-12-08T02:38:07.975Z,2.70
2022-12-08T02:40:34.790Z,2.70
2022-12-08T02:43:09.478Z,2.60
2022-12-08T02:45:51.892Z,2.60
2022-12-08T02:48:21.037Z,2.60
2022-12-08T02:50:47.941Z,2.60
2022-12-08T02:53:17.156Z,2.60
2022-12-08T02:56:01.625Z,2.70
2022-12-08T02:58:47.330Z,2.70
2022-12-08T03:01:46.783Z,2.70
2022-12-08T03:04:33.761Z,2.70
2022-12-08T03:07:45.335Z,2.70
2022-12-08T03:10:25.600Z,2.70
2022-12-08T03:13:09.141Z,2.70
2022-12-08T03:15:38.812Z,2.70
2022-12-08T03:18:11.292Z,2.70
2022-12-08T03:20:41.716Z,2.70
2022-12-08T03:23:11.616Z,2.70
2022-12-08T03:25:44.918Z,2.70
2022-12-08T03:28:12.820Z,2.70
2022-12-08T03:30:42.093Z,2.70
2022-12-08T03:33:23.105Z,2.70
2022-12-08T03:35:51.661Z,2.70
2022-12-08T03:38:21.072Z,2.60
2022-12-08T03:41:10.323Z,2.60
2022-12-08T03:43:37.242Z,2.60
2022-12-08T03:46:06.471Z,2.60
2022-12-08T03:48:33.374Z,2.60
2022-12-08T03:51:02.329Z,2.60
2022-12-08T03:53:29.217Z,2.60
2022-12-08T03:55:58.349Z,2.70
2022-12-08T03:58:25.256Z,2.60
2022-12-08T04:00:52.051Z,2.60
2022-12-08T04:07:47.234Z,2.60
2022-12-08T04:10:14.215Z,2.60
2022-12-08T04:12:41.045Z,2.60
2022-12-08T04:15:08.657Z,2.60
2022-12-08T04:17:36.030Z,2.60
2022-12-08T04:20:03.461Z,2.60
2022-12-08T04:22:30.541Z,2.60
2022-12-08T04:24:57.610Z,2.60
2022-12-08T04:27:24.469Z,2.60
2022-12-08T04:29:51.322Z,2.60
2022-12-08T04:32:18.170Z,2.50
2022-12-08T04:34:45.053Z,2.50
2022-12-08T04:37:11.866Z,2.50
2022-12-08T04:39:41.069Z,2.60
2022-12-08T04:42:08.003Z,2.60
2022-12-08T04:44:35.252Z,2.60
2022-12-08T04:47:04.292Z,2.60
2022-12-08T04:49:31.285Z,2.60
2022-12-08T04:52:00.294Z,2.60
2022-12-08T04:54:28.278Z,2.60
2022-12-08T04:56:55.140Z,2.60
2022-12-08T04:59:22.021Z,2.60
2022-12-08T05:01:51.102Z,2.60
2022-12-08T05:04:18.013Z,2.70
2022-12-08T05:06:44.891Z,2.70
2022-12-08T05:09:12.137Z,2.70
2022-12-08T05:11:48.364Z,2.70
2022-12-08T05:14:17.921Z,2.70
2022-12-08T05:16:46.006Z,2.70
2022-12-08T05:19:13.635Z,2.70
2022-12-08T05:21:40.731Z,2.70
2022-12-08T05:24:09.712Z,2.70
2022-12-08T05:26:38.652Z,2.70
2022-12-08T05:29:09.715Z,2.70
2022-12-08T05:31:36.674Z,2.70
2022-12-08T05:34:05.941Z,2.70
2022-12-08T05:36:32.831Z,2.80
2022-12-08T05:38:59.692Z,2.80
2022-12-08T05:41:26.662Z,2.80
2022-12-08T05:43:53.514Z,2.80
2022-12-08T05:46:22.946Z,2.80
2022-12-08T05:48:49.914Z,2.80
2022-12-08T05:51:25.204Z,2.80
2022-12-08T05:53:52.765Z,2.80
2022-12-08T05:56:20.718Z,2.80
2022-12-08T05:58:50.293Z,2.80
2022-12-08T06:01:27.654Z,2.80
2022-12-08T06:03:57.247Z,2.90
2022-12-08T06:06:25.024Z,2.90
2022-12-08T06:08:57.132Z,2.90
2022-12-08T06:11:29.058Z,2.90
2022-12-08T06:13:57.321Z,2.90
2022-12-08T06:16:26.212Z,3.00
2022-12-08T06:18:58.555Z,3.00
2022-12-08T06:21:25.447Z,3.00
2022-12-08T06:23:55.322Z,3.00
2022-12-08T06:26:23.130Z,3.00
2022-12-08T06:28:50.466Z,3.00
2022-12-08T06:31:23.297Z,3.00
2022-12-08T06:33:50.673Z,2.90
2022-12-08T06:36:19.405Z,2.90
2022-12-08T06:38:46.815Z,2.90
2022-12-08T06:41:17.005Z,2.90
2022-12-08T06:43:44.243Z,2.90
2022-12-08T06:46:19.731Z,2.90
2022-12-08T06:48:47.336Z,2.90
2022-12-08T06:51:20.246Z,2.90
2022-12-08T06:58:14.716Z,2.90
2022-12-08T07:00:42.374Z,3.00
2022-12-08T07:03:15.010Z,3.00
2022-12-08T07:05:41.933Z,3.00
2022-12-08T07:08:11.188Z,3.00
2022-12-08T07:10:40.309Z,3.00
2022-12-08T07:13:07.354Z,3.00
2022-12-08T07:15:36.757Z,3.00
2022-12-08T07:18:05.953Z,3.00
2022-12-08T07:20:37.727Z,3.10
2022-12-08T07:23:04.557Z,3.10
2022-12-08T07:25:31.545Z,3.10
2022-12-08T07:27:58.471Z,3.10
2022-12-08T07:30:27.650Z,3.10
2022-12-08T07:32:54.594Z,3.10
2022-12-08T07:35:22.979Z,3.10
2022-12-08T07:37:50.113Z,3.10
2022-12-08T07:40:17.543Z,3.10
2022-12-08T07:42:44.407Z,3.10
2022-12-08T07:45:11.370Z,3.10
2022-12-08T07:47:40.637Z,3.10
2022-12-08T07:50:10.066Z,3.10
2022-12-08T07:52:41.590Z,3.20
2022-12-08T07:55:08.945Z,3.20
2022-12-08T07:57:35.783Z,3.20
2022-12-08T08:00:06.242Z,3.20
2022-12-08T08:02:38.676Z,3.20
2022-12-08T08:05:06.678Z,3.30
2022-12-08T08:07:34.657Z,3.30
2022-12-08T08:10:01.657Z,3.30
2022-12-08T08:12:32.342Z,3.30
2022-12-08T08:15:05.692Z,3.30
2022-12-08T08:17:32.739Z,3.30
2022-12-08T08:20:02.700Z,3.30
2022-12-08T08:22:29.781Z,3.30
2022-12-08T08:24:56.716Z,3.30
2022-12-08T08:27:25.065Z,3.30
2022-12-08T08:29:54.481Z,3.30
2022-12-08T08:32:21.595Z,3.40
2022-12-08T08:34:48.455Z,3.40
2022-12-08T08:37:15.349Z,3.40
2022-12-08T08:39:47.079Z,3.40
2022-12-08T08:42:13.923Z,3.50
2022-12-08T08:44:40.916Z,3.50
2022-12-08T08:47:07.990Z,3.50
2022-12-08T08:49:34.950Z,3.50
2022-12-08T08:52:02.137Z,3.50
2022-12-08T08:54:29.868Z,3.60
2022-12-08T08:57:00.347Z,3.50
2022-12-08T08:59:28.181Z,3.60
2022-12-08T09:01:55.793Z,3.60
2022-12-08T09:04:23.609Z,3.60
2022-12-08T09:06:50.565Z,3.70
2022-12-08T09:09:17.589Z,3.70
2022-12-08T09:11:44.579Z,3.70
2022-12-08T09:14:12.952Z,3.80
2022-12-08T09:16:42.367Z,3.80
2022-12-08T09:19:10.005Z,3.90
2022-12-08T09:21:40.118Z,3.90
2022-12-08T09:24:15.809Z,3.90
2022-12-08T09:26:44.788Z,3.90
2022-12-08T09:29:14.735Z,3.90
2022-12-08T09:31:42.187Z,4.00
2022-12-08T09:34:15.864Z,3.90
2022-12-08T09:36:45.202Z,3.90
2022-12-08T09:39:12.085Z,3.90
2022-12-08T09:41:50.215Z,3.90
2022-12-08T09:44:40.438Z,4.00
2022-12-08T09:47:21.125Z,4.00
2022-12-08T09:50:16.356Z,4.00
2022-12-08T09:52:55.528Z,4.10
2022-12-08T09:55:41.417Z,4.10
2022-12-08T09:58:19.646Z,4.10
2022-12-08T10:00:48.699Z,4.20
2022-12-08T10:03:17.008Z,4.20
2022-12-08T10:06:11.839Z,4.20
2022-12-08T10:13:08.590Z,4.30
2022-12-08T10:16:06.210Z,4.30
2022-12-08T10:18:34.890Z,4.30
2022-12-08T10:21:18.806Z,4.20
2022-12-08T10:23:58.516Z,4.20
2022-12-08T10:26:25.495Z,4.20
2022-12-08T10:28:52.607Z,4.20
2022-12-08T10:31:22.459Z,4.20
2022-12-08T10:33:58.913Z,4.30
2022-12-08T10:36:56.695Z,4.30
2022-12-08T10:39:38.576Z,4.30
2022-12-08T10:42:14.535Z,4.30
2022-12-08T10:44:55.433Z,4.30
2022-12-08T10:47:28.177Z,4.40
2022-12-08T10:50:10.049Z,4.40
2022-12-08T10:52:40.983Z,4.30
2022-12-08T10:55:16.195Z,4.30
2022-12-08T10:57:45.892Z,4.30
2022-12-08T11:00:18.250Z,4.30
2022-12-08T11:03:08.128Z,4.30
2022-12-08T11:05:36.544Z,4.30
2022-12-08T11:08:08.623Z,4.20
2022-12-08T11:10:42.866Z,4.20
2022-12-08T11:13:48.420Z,4.20
2022-12-08T11:16:18.084Z,4.20
2022-12-08T11:18:56.655Z,4.20
2022-12-08T11:21:38.227Z,4.20
2022-12-08T11:24:37.597Z,4.20
2022-12-08T11:27:08.970Z,4.20
2022-12-08T11:29:38.379Z,4.20
2022-12-08T11:32:13.159Z,4.20
2022-12-08T11:34:50.538Z,4.20
2022-12-08T11:37:41.235Z,4.20
2022-12-08T11:40:32.266Z,4.20
2022-12-08T11:43:18.484Z,4.20
2022-12-08T11:45:46.296Z,4.20
2022-12-08T11:48:42.184Z,4.30
2022-12-08T11:51:21.631Z,4.30
2022-12-08T11:54:21.466Z,4.20
2022-12-08T11:56:56.986Z,4.30
2022-12-08T11:59:29.361Z,4.10
2022-12-08T12:01:58.517Z,4.20
2022-12-08T12:04:50.077Z,4.20
2022-12-08T12:07:29.006Z,4.30
2022-12-08T12:10:24.051Z,4.30
2022-12-08T12:13:35.286Z,4.30
2022-12-08T12:16:13.619Z,4.30
2022-12-08T12:19:03.500Z,4.20
2022-12-08T12:21:33.154Z,4.20
2022-12-08T12:24:19.683Z,4.20
2022-12-08T12:27:19.756Z,4.30
2022-12-08T12:29:58.845Z,4.30
2022-12-08T12:32:27.225Z,4.30
2022-12-08T12:34:58.899Z,4.20
2022-12-08T12:37:41.934Z,4.20
2022-12-08T12:40:16.671Z,4.20
2022-12-08T12:42:49.159Z,4.30
2022-12-08T12:45:16.242Z,4.30
2022-12-08T12:47:48.633Z,4.40
2022-12-08T12:50:34.542Z,4.40
2022-12-08T12:53:26.170Z,4.40
2022-12-08T12:55:57.340Z,4.40
2022-12-08T12:58:29.994Z,4.40
2022-12-08T13:01:14.991Z,4.40
2022-12-08T13:03:52.015Z,4.40
2022-12-08T13:06:44.164Z,4.40
2022-12-08T13:09:27.962Z,4.30
2022-12-08T13:12:01.630Z,4.30
2022-12-08T13:14:30.233Z,4.30
2022-12-08T13:17:00.109Z,4.30
2022-12-08T13:19:31.989Z,4.30
2022-12-08T13:21:59.681Z,4.30
2022-12-08T13:24:35.102Z,4.30
2022-12-08T13:27:04.628Z,4.40
2022-12-08T13:29:32.684Z,4.40
2022-12-08T13:32:00.715Z,4.40
2022-12-08T13:34:39.337Z,4.40
2022-12-08T13:37:12.776Z,4.40
2022-12-08T13:39:39.729Z,4.40
2022-12-08T13:42:11.875Z,4.40
2022-12-08T13:45:22.298Z,4.40
2022-12-08T13:48:23.358Z,4.40
2022-12-08T13:57:10.153Z,4.40
2022-12-08T13:59:46.256Z,4.40
2022-12-08T14:02:19.311Z,4.40
2022-12-08T14:07:40.213Z,4.40
2022-12-08T14:10:13.611Z,4.30
2022-12-08T14:12:45.369Z,4.30
2022-12-08T14:15:17.260Z,4.30
2022-12-08T14:21:58.345Z,4.40
2022-12-08T14:24:30.704Z,4.40
2022-12-08T14:27:01.358Z,4.40
2022-12-08T14:29:47.869Z,4.40
2022-12-08T14:32:24.072Z,4.40
2022-12-08T14:34:55.810Z,4.40
2022-12-08T14:37:25.678Z,4.30
2022-12-08T14:39:53.766Z,4.30
2022-12-08T14:42:25.949Z,4.30
2022-12-08T14:45:04.725Z,4.30
2022-12-08T14:47:33.876Z,4.30
2022-12-08T14:50:02.808Z,4.20
2022-12-08T14:52:30.962Z,4.20
2022-12-08T14:54:58.662Z,4.20
2022-12-08T14:57:34.938Z,4.20
2022-12-08T15:00:08.970Z,4.20
2022-12-08T15:02:43.954Z,4.20
2022-12-08T15:05:15.820Z,4.20
2022-12-08T15:07:58.824Z,4.20
2022-12-08T15:10:29.567Z,4.20
2022-12-08T15:12:57.363Z,4.20
2022-12-08T15:15:24.550Z,4.20
2022-12-08T15:17:58.585Z,4.20
2022-12-08T15:20:31.521Z,4.20
2022-12-08T15:23:04.306Z,4.10
2022-12-08T15:25:31.903Z,4.10
2022-12-08T15:27:58.838Z,4.10
2022-12-08T15:30:29.792Z,4.10
2022-12-08T15:32:57.279Z,4.10
2022-12-08T15:35:24.188Z,4.10
2022-12-08T15:37:51.291Z,4.10
2022-12-08T15:40:21.194Z,4.10
2022-12-08T15:42:48.873Z,4.00
2022-12-08T15:45:18.582Z,4.00
2022-12-08T15:47:45.838Z,4.00
2022-12-08T15:50:18.766Z,4.00
2022-12-08T15:52:48.519Z,4.00
2022-12-08T15:55:18.069Z,4.00
2022-12-08T16:00:55.663Z,4.00
2022-12-08T16:04:13.819Z,4.00
2022-12-08T16:09:42.036Z,4.00
2022-12-08T16:15:51.688Z,4.00
2022-12-08T16:18:18.368Z,4.00
2022-12-08T16:21:07.557Z,4.00
2022-12-08T16:23:46.480Z,4.00
2022-12-08T16:27:01.205Z,4.00
2022-12-08T16:29:08.048Z,4.00
2022-12-08T16:31:35.330Z,4.00
2022-12-08T16:34:02.383Z,4.00
2022-12-08T16:36:29.312Z,4.00
2022-12-08T16:38:58.710Z,3.90
2022-12-08T16:41:44.186Z,3.90
2022-12-08T16:44:11.136Z,4.00
2022-12-08T16:46:38.059Z,3.90
2022-12-08T16:49:07.720Z,3.90
2022-12-08T16:51:34.628Z,3.90
2022-12-08T16:54:01.489Z,3.90
2022-12-08T16:56:33.225Z,3.90
2022-12-08T16:59:01.746Z,3.90
2022-12-08T17:01:28.699Z,3.90
2022-12-08T17:06:44.750Z,3.90
2022-12-08T17:09:11.557Z,3.80
2022-12-08T17:11:42.928Z,3.80
2022-12-08T17:14:16.456Z,3.80
2022-12-08T17:16:46.092Z,3.70
2022-12-08T17:19:15.169Z,3.80
2022-12-08T17:21:44.401Z,3.80
2022-12-08T17:24:12.323Z,3.70
2022-12-08T17:26:40.584Z,3.70
2022-12-08T17:29:09.901Z,3.70
2022-12-08T17:31:36.922Z,3.70
2022-12-08T17:34:11.001Z,3.70
2022-12-08T17:36:38.006Z,3.70
2022-12-08T17:39:06.001Z,3.60
2022-12-08T17:41:33.034Z,3.60
2022-12-08T17:43:59.849Z,3.60
2022-12-08T17:46:27.000Z,3.60
2022-12-08T17:48:54.186Z,3.60
2022-12-08T17:51:21.300Z,3.60
2022-12-08T17:53:48.189Z,3.60
2022-12-08T17:56:20.185Z,3.60
2022-12-08T17:58:52.915Z,3.50
2022-12-08T18:01:22.863Z,3.50
2022-12-08T18:03:50.470Z,3.50
2022-12-08T18:06:20.069Z,3.50
2022-12-08T18:08:47.100Z,3.50
2022-12-08T18:11:17.149Z,3.50
2022-12-08T18:13:44.720Z,3.50
2022-12-08T18:16:14.433Z,3.50
2022-12-08T18:18:41.707Z,3.50
2022-12-08T18:21:09.060Z,3.40
2022-12-08T18:23:41.013Z,3.50
2022-12-08T18:26:10.603Z,3.50
2022-12-08T18:28:38.343Z,3.40
2022-12-08T18:31:14.447Z,3.40
2022-12-08T18:33:45.346Z,3.40
2022-12-08T18:36:15.477Z,3.40
2022-12-08T18:38:42.862Z,3.40
2022-12-08T18:41:15.135Z,3.40
2022-12-08T18:43:41.953Z,3.40
2022-12-08T18:46:11.247Z,3.40
2022-12-08T18:48:41.381Z,3.30
2022-12-08T18:51:12.781Z,3.30
2022-12-08T18:53:40.832Z,3.30
2022-12-08T18:56:19.776Z,3.30
2022-12-08T18:58:46.700Z,3.30
2022-12-08T19:01:14.546Z,3.30
2022-12-08T19:03:52.818Z,3.30
2022-12-08T19:06:30.030Z,3.30
2022-12-08T19:09:02.770Z,3.30
2022-12-08T19:11:30.473Z,3.30
2022-12-08T19:13:57.510Z,3.30
2022-12-08T19:16:26.850Z,3.20
2022-12-08T19:18:56.582Z,3.20
2022-12-08T19:21:24.738Z,3.20
2022-12-08T19:23:52.741Z,3.20
2022-12-08T19:26:19.839Z,3.20
2022-12-08T19:28:47.082Z,3.20
2022-12-08T19:31:18.855Z,3.20
2022-12-08T19:33:48.068Z,3.10
2022-12-08T19:36:17.936Z,3.20
2022-12-08T19:39:06.389Z,3.20
2022-12-08T19:41:52.291Z,3.20
2022-12-08T19:44:34.184Z,3.20
2022-12-08T19:47:01.969Z,3.20
2022-12-08T19:49:28.989Z,3.20
2022-12-08T19:51:56.667Z,3.20
2022-12-08T19:54:23.621Z,3.20
2022-12-08T19:56:51.124Z,3.20
2022-12-08T19:59:18.157Z,3.20
2022-12-08T20:01:49.192Z,3.10
2022-12-08T20:04:18.929Z,3.10
2022-12-08T20:06:48.205Z,3.00
2022-12-08T20:09:16.510Z,3.00
2022-12-08T20:11:43.376Z,3.00
2022-12-08T20:14:14.887Z,3.00
2022-12-08T20:16:41.993Z,3.00
2022-12-08T20:19:09.728Z,3.00
2022-12-08T20:21:39.721Z,2.90
2022-12-08T20:24:07.204Z,2.90
2022-12-08T20:26:34.303Z,2.90
2022-12-08T20:29:04.388Z,2.90
2022-12-08T20:31:35.102Z,2.90
2022-12-08T20:34:02.890Z,2.80
2022-12-08T20:36:30.754Z,2.80
2022-12-08T20:38:57.697Z,2.80
2022-12-08T20:41:24.739Z,2.80
2022-12-08T20:43:52.361Z,2.80
2022-12-08T20:46:21.004Z,2.80
2022-12-08T20:48:50.360Z,2.80
2022-12-08T20:51:20.243Z,2.80
2022-12-08T20:53:47.880Z,2.80
2022-12-08T20:56:17.462Z,2.70
2022-12-08T20:58:44.595Z,2.70
2022-12-08T21:01:13.821Z,2.70
2022-12-08T21:03:41.560Z,2.70
2022-12-08T21:06:08.929Z,2.70
2022-12-08T21:08:36.847Z,2.70
2022-12-08T21:11:04.982Z,2.60
2022-12-08T21:13:36.662Z,2.60
2022-12-08T21:16:04.869Z,2.60
2022-12-08T21:18:38.889Z,2.60
2022-12-08T21:21:09.999Z,2.60
2022-12-08T21:23:36.976Z,2.60
2022-12-08T21:26:16.526Z,2.60
2022-12-08T21:28:44.134Z,2.60
2022-12-08T21:31:16.464Z,2.50
2022-12-08T21:33:43.742Z,2.50
2022-12-08T21:36:17.088Z,2.50
2022-12-08T21:38:47.027Z,2.50
2022-12-08T21:41:37.585Z,2.50
2022-12-08T21:44:06.030Z,2.50
2022-12-08T21:46:33.120Z,2.50
2022-12-08T21:49:00.220Z,2.50
2022-12-08T21:51:30.510Z,2.50
2022-12-08T21:53:59.703Z,2.50
2022-12-08T21:56:26.730Z,2.40
2022-12-08T21:58:54.133Z,2.40
2022-12-08T22:01:23.568Z,2.40
2022-12-08T22:03:53.317Z,2.40
2022-12-08T22:06:22.823Z,2.40
2022-12-08T22:08:49.772Z,2.40
2022-12-08T22:11:19.287Z,2.40
2022-12-08T22:13:46.363Z,2.40
2022-12-08T22:16:16.441Z,2.40
2022-12-08T22:18:43.493Z,2.40
2022-12-08T22:21:14.956Z,2.40
2022-12-08T22:23:42.522Z,2.40
2022-12-08T22:26:11.862Z,2.30
2022-12-08T22:28:43.400Z,2.30
2022-12-08T22:31:15.486Z,2.30
2022-12-08T22:33:45.325Z,2.30
2022-12-08T22:36:18.528Z,2.20
2022-12-08T22:38:45.886Z,2.20
2022-12-08T22:41:15.455Z,2.20
2022-12-08T22:43:43.003Z,2.20
2022-12-08T22:46:14.375Z,2.20
2022-12-08T22:48:41.881Z,2.20
2022-12-08T22:51:11.667Z,2.20
2022-12-08T22:53:38.710Z,2.10
2022-12-08T22:56:10.590Z,2.10
2022-12-08T22:58:41.390Z,2.10
2022-12-08T23:01:21.810Z,2.10
2022-12-08T23:03:48.856Z,2.10
2022-12-08T23:06:18.467Z,2.00
2022-12-08T23:08:50.413Z,2.00
2022-12-08T23:11:17.781Z,2.00
2022-12-08T23:13:44.740Z,2.00
2022-12-08T23:16:15.075Z,2.00
2022-12-08T23:18:46.331Z,2.00
2022-12-08T23:21:19.436Z,2.00
2022-12-08T23:23:47.250Z,2.00
2022-12-08T23:26:26.696Z,2.00
2022-12-08T23:28:56.114Z,2.00
2022-12-08T23:31:23.477Z,2.00
2022-12-08T23:33:51.561Z,2.00
2022-12-08T23:36:20.898Z,2.00
2022-12-08T23:38:48.080Z,2.00
2022-12-08T23:41:16.296Z,2.00
2022-12-08T23:43:48.859Z,2.00
2022-12-08T23:46:18.346Z,2.00
2022-12-08T23:48:46.073Z,2.00
2022-12-08T23:51:13.474Z,1.90
2022-12-08T23:53:40.656Z,1.90
2022-12-08T23:56:12.723Z,2.00
2022-12-08T23:58:41.114Z,2.00
